Time;durP1;ratioP1;P1;durP2;ratioP2;P2;SDS_P1;SDS_P2;PMS_P1;PMS_P2;Temp;Humidity;BMP_temperature;BMP_pressure;BME280_temperature;BME280_humidity;BME280_pressure;Samples;Min_cycle;Max_cycle;Signal;HPM_P1;HPM_P2
2022/05/05 00:01:51;;;;;;;;;;;11.80;65.00;;;;;;5075299;28;19916;-77
2022/05/05 00:04:19;;;;;;;;;;;11.70;65.60;;;;;;5077377;28;20003;-78
2022/05/05 00:06:45;;;;;;;;;;;11.70;66.00;;;;;;5072966;28;20348;-78
2022/05/05 00:09:10;;;;;;;;;;;11.80;66.90;;;;;;5074158;28;19939;-78
2022/05/05 00:14:23;;;;;;;;;;;11.70;67.30;;;;;;5091260;28;19931;-78
2022/05/05 00:17:02;;;;;;;;;;;11.80;66.40;;;;;;5092166;28;19920;-78
2022/05/05 00:19:28;;;;;;;;;;;11.80;66.80;;;;;;5076264;28;19985;-78
2022/05/05 00:21:54;;;;;;;;;;;12.00;66.00;;;;;;5076685;28;19916;-78
2022/05/05 00:24:19;;;;;;;;;;;11.90;66.70;;;;;;5070787;28;19930;-78
2022/05/05 00:26:45;;;;;;;;;;;12.00;66.10;;;;;;5067214;28;19988;-79
2022/05/05 00:29:11;;;;;;;;;;;12.00;65.90;;;;;;5073797;28;19952;-77
2022/05/05 00:31:36;;;;;;;;;;;12.00;66.20;;;;;;5094921;28;19915;-79
2022/05/05 00:34:01;;;;;;;;;;;12.00;65.80;;;;;;5093208;28;19912;-78
2022/05/05 00:36:27;;;;;;;;;;;12.00;65.90;;;;;;5087835;28;19938;-77
2022/05/05 00:38:52;;;;;;;;;;;11.90;66.80;;;;;;5090397;28;19916;-78
2022/05/05 00:41:18;;;;;;;;;;;11.90;67.70;;;;;;5083860;28;20357;-78
2022/05/05 00:43:43;;;;;;;;;;;11.90;68.50;;;;;;5084443;28;19919;-78
2022/05/05 00:46:09;;;;;;;;;;;11.90;68.50;;;;;;5091773;28;19923;-77
2022/05/05 00:48:34;;;;;;;;;;;12.00;68.70;;;;;;5084804;28;19978;-77
2022/05/05 00:51:00;;;;;;;;;;;11.90;68.70;;;;;;5076096;28;19924;-78
2022/05/05 00:53:25;;;;;;;;;;;12.00;68.80;;;;;;5084169;28;19908;-77
2022/05/05 00:55:53;;;;;;;;;;;11.90;69.40;;;;;;5091015;28;20022;-78
2022/05/05 00:58:19;;;;;;;;;;;11.70;69.90;;;;;;5076168;28;19916;-78
2022/05/05 01:00:45;;;;;;;;;;;11.60;70.80;;;;;;5091386;28;19919;-78
2022/05/05 01:03:11;;;;;;;;;;;11.60;71.10;;;;;;5080500;28;19919;-77
2022/05/05 01:05:37;;;;;;;;;;;11.60;70.90;;;;;;5069668;28;19912;-78
2022/05/05 01:08:02;;;;;;;;;;;11.50;71.50;;;;;;5073977;28;20253;-78
2022/05/05 01:10:28;;;;;;;;;;;11.40;71.90;;;;;;5083985;28;19913;-76
2022/05/05 01:12:53;;;;;;;;;;;11.50;71.40;;;;;;5096787;28;19912;-77
2022/05/05 01:15:19;;;;;;;;;;;11.50;71.00;;;;;;5087738;28;19916;-78
2022/05/05 01:17:45;;;;;;;;;;;11.60;71.10;;;;;;5092271;28;20149;-78
2022/05/05 01:20:10;;;;;;;;;;;11.50;71.30;;;;;;5074103;28;19916;-77
2022/05/05 01:22:36;;;;;;;;;;;11.60;71.30;;;;;;5091646;28;19931;-76
2022/05/05 01:30:29;;;;;;;;;;;11.60;71.40;;;;;;5091492;28;19923;-78
2022/05/05 01:32:55;;;;;;;;;;;11.70;71.10;;;;;;5072421;28;19916;-77
2022/05/05 01:35:20;;;;;;;;;;;11.80;71.00;;;;;;5076430;28;19979;-78
2022/05/05 01:37:47;;;;;;;;;;;12.00;70.80;;;;;;5073917;28;19979;-78
2022/05/05 01:40:14;;;;;;;;;;;12.10;70.20;;;;;;5084944;28;19935;-78
2022/05/05 01:42:40;;;;;;;;;;;12.00;70.20;;;;;;5073719;28;20366;-78
2022/05/05 01:45:06;;;;;;;;;;;12.00;70.10;;;;;;5075682;28;19912;-77
2022/05/05 01:47:31;;;;;;;;;;;11.90;69.40;;;;;;5091142;28;20382;-78
2022/05/05 01:49:57;;;;;;;;;;;11.80;69.80;;;;;;5069516;28;19962;-78
2022/05/05 01:52:23;;;;;;;;;;;11.60;70.60;;;;;;5069131;28;19912;-78
2022/05/05 01:54:48;;;;;;;;;;;11.50;71.50;;;;;;5059800;28;19913;-78
2022/05/05 01:57:14;;;;;;;;;;;11.50;72.10;;;;;;5082993;28;19998;-78
2022/05/05 01:59:39;;;;;;;;;;;11.40;72.30;;;;;;5068628;28;20349;-78
2022/05/05 02:02:05;;;;;;;;;;;11.30;72.60;;;;;;5085049;28;19936;-78
2022/05/05 02:04:30;;;;;;;;;;;11.30;73.20;;;;;;5059172;28;20126;-76
2022/05/05 02:06:56;;;;;;;;;;;11.30;73.50;;;;;;5070545;28;20268;-77
2022/05/05 02:09:21;;;;;;;;;;;11.30;74.00;;;;;;5071559;28;20366;-78
2022/05/05 02:11:47;;;;;;;;;;;11.50;73.30;;;;;;5088957;28;20712;-77
2022/05/05 02:14:12;;;;;;;;;;;11.60;72.30;;;;;;5081922;28;20405;-77
2022/05/05 02:16:38;;;;;;;;;;;11.60;71.90;;;;;;5078168;28;19912;-78
2022/05/05 02:19:03;;;;;;;;;;;11.70;71.00;;;;;;5075351;28;19909;-78
2022/05/05 02:21:29;;;;;;;;;;;11.50;71.00;;;;;;5069286;28;19927;-78
2022/05/05 02:23:54;;;;;;;;;;;11.50;71.70;;;;;;5082729;28;19912;-78
2022/05/05 02:26:20;;;;;;;;;;;11.60;70.70;;;;;;5087228;28;19981;-79
2022/05/05 02:28:45;;;;;;;;;;;11.40;71.50;;;;;;5086860;28;19912;-77
2022/05/05 02:31:10;;;;;;;;;;;11.30;72.70;;;;;;5082804;28;19916;-76
2022/05/05 02:33:36;;;;;;;;;;;11.30;72.90;;;;;;5084766;28;19912;-77
2022/05/05 02:38:47;;;;;;;;;;;11.20;73.10;;;;;;5075751;28;20011;-77
2022/05/05 02:41:13;;;;;;;;;;;11.20;73.90;;;;;;5078048;28;19923;-77
2022/05/05 02:43:38;;;;;;;;;;;11.30;73.00;;;;;;5083320;28;19989;-77
2022/05/05 02:46:04;;;;;;;;;;;11.40;73.10;;;;;;5071050;28;19922;-77
2022/05/05 02:48:29;;;;;;;;;;;11.30;73.90;;;;;;5078712;28;19916;-77
2022/05/05 02:50:54;;;;;;;;;;;11.40;73.70;;;;;;5083735;28;19957;-77
2022/05/05 02:56:05;;;;;;;;;;;11.40;73.60;;;;;;5078832;28;19939;-77
2022/05/05 02:58:30;;;;;;;;;;;11.30;74.00;;;;;;5086271;28;20329;-75
2022/05/05 03:00:56;;;;;;;;;;;11.30;73.90;;;;;;5083573;28;19973;-75
2022/05/05 03:03:21;;;;;;;;;;;11.30;74.10;;;;;;5086812;28;19928;-77
2022/05/05 03:05:46;;;;;;;;;;;11.10;74.90;;;;;;5064665;28;19912;-77
2022/05/05 03:08:12;;;;;;;;;;;11.10;74.70;;;;;;5082712;28;19938;-76
2022/05/05 03:10:38;;;;;;;;;;;11.00;75.00;;;;;;5086255;28;19955;-77
2022/05/05 03:13:04;;;;;;;;;;;11.00;75.10;;;;;;5081326;28;19919;-77
2022/05/05 03:15:30;;;;;;;;;;;11.00;75.10;;;;;;5082315;28;19912;-77
2022/05/05 03:17:55;;;;;;;;;;;11.00;75.20;;;;;;5072709;28;20003;-77
2022/05/05 03:20:20;;;;;;;;;;;11.00;75.30;;;;;;5077041;28;19916;-76
2022/05/05 03:22:46;;;;;;;;;;;11.10;75.10;;;;;;5092488;28;19957;-77
2022/05/05 03:25:11;;;;;;;;;;;11.10;75.20;;;;;;5083475;28;19938;-77
2022/05/05 03:27:37;;;;;;;;;;;11.00;75.70;;;;;;5095608;28;19916;-77
2022/05/05 03:30:03;;;;;;;;;;;11.10;75.50;;;;;;5071813;28;20354;-77
2022/05/05 03:32:29;;;;;;;;;;;11.00;75.90;;;;;;5074481;28;20293;-77
2022/05/05 03:34:55;;;;;;;;;;;11.00;76.10;;;;;;5087181;28;19912;-77
2022/05/05 03:37:20;;;;;;;;;;;10.90;76.70;;;;;;5087512;28;19916;-77
2022/05/05 03:39:46;;;;;;;;;;;11.10;76.40;;;;;;5088583;28;20393;-75
2022/05/05 03:42:11;;;;;;;;;;;11.10;75.80;;;;;;5081667;28;19916;-77
2022/05/05 03:44:37;;;;;;;;;;;10.90;75.90;;;;;;5078365;28;19981;-77
2022/05/05 03:47:03;;;;;;;;;;;10.90;76.60;;;;;;5092758;28;20439;-78
2022/05/05 03:49:28;;;;;;;;;;;10.90;76.80;;;;;;5087531;28;19912;-77
2022/05/05 03:51:56;;;;;;;;;;;10.80;76.70;;;;;;5068407;28;19909;-78
2022/05/05 03:54:23;;;;;;;;;;;10.80;76.90;;;;;;5076740;28;20526;-77
2022/05/05 03:56:48;;;;;;;;;;;10.80;77.00;;;;;;5094367;28;20270;-78
2022/05/05 03:59:13;;;;;;;;;;;10.70;76.90;;;;;;5087904;28;19912;-79
2022/05/05 04:01:39;;;;;;;;;;;10.60;76.90;;;;;;5089055;28;20023;-77
2022/05/05 04:04:04;;;;;;;;;;;10.60;77.10;;;;;;5068128;28;19963;-76
2022/05/05 04:06:30;;;;;;;;;;;10.60;77.10;;;;;;5076848;28;19912;-77
2022/05/05 04:08:55;;;;;;;;;;;10.60;77.20;;;;;;5090658;28;20026;-77
2022/05/05 04:11:21;;;;;;;;;;;10.60;77.10;;;;;;5086767;28;19920;-76
2022/05/05 04:13:46;;;;;;;;;;;10.60;77.00;;;;;;5091176;28;19916;-75
2022/05/05 04:16:12;;;;;;;;;;;10.60;77.00;;;;;;5079566;28;19999;-77
2022/05/05 04:18:37;;;;;;;;;;;10.50;76.90;;;;;;5080260;28;19912;-77
2022/05/05 04:21:03;;;;;;;;;;;10.50;76.60;;;;;;5074082;28;20720;-77
2022/05/05 04:23:29;;;;;;;;;;;10.50;76.60;;;;;;5086644;28;19919;-77
2022/05/05 04:25:54;;;;;;;;;;;10.60;76.90;;;;;;5072973;28;19912;-78
2022/05/05 04:28:21;;;;;;;;;;;10.60;76.70;;;;;;5060098;28;19920;-76
2022/05/05 04:30:46;;;;;;;;;;;10.70;76.60;;;;;;5073080;28;19920;-76
2022/05/05 04:33:12;;;;;;;;;;;10.70;76.90;;;;;;5060235;28;19913;-77
2022/05/05 04:35:39;;;;;;;;;;;10.70;77.50;;;;;;5088014;28;20007;-77
2022/05/05 04:38:04;;;;;;;;;;;10.80;77.50;;;;;;5071478;28;20358;-77
2022/05/05 04:40:30;;;;;;;;;;;10.80;77.50;;;;;;5084320;28;19967;-77
2022/05/05 04:42:56;;;;;;;;;;;10.80;77.30;;;;;;5091809;28;19940;-77
2022/05/05 04:45:21;;;;;;;;;;;10.90;77.00;;;;;;5075973;28;19916;-78
2022/05/05 04:47:47;;;;;;;;;;;11.00;76.60;;;;;;5097890;28;20638;-78
2022/05/05 04:50:12;;;;;;;;;;;11.10;75.80;;;;;;5098528;28;19959;-78
2022/05/05 04:52:38;;;;;;;;;;;11.20;75.40;;;;;;5095544;28;19920;-77
2022/05/05 04:55:04;;;;;;;;;;;11.30;75.10;;;;;;5071843;28;19916;-77
2022/05/05 04:57:29;;;;;;;;;;;11.30;73.70;;;;;;5076251;28;19928;-76
2022/05/05 04:59:55;;;;;;;;;;;11.30;73.40;;;;;;5069195;28;19997;-85
2022/05/05 05:02:20;;;;;;;;;;;11.50;73.80;;;;;;5067499;28;20029;-81
2022/05/05 05:04:46;;;;;;;;;;;11.60;74.20;;;;;;5073767;28;19916;-80
2022/05/05 05:07:11;;;;;;;;;;;11.60;74.40;;;;;;5083504;28;19954;-80
2022/05/05 05:09:37;;;;;;;;;;;11.70;74.10;;;;;;5090048;28;20010;-81
2022/05/05 05:12:03;;;;;;;;;;;11.80;73.80;;;;;;5077988;28;19994;-80
2022/05/05 05:14:28;;;;;;;;;;;11.70;73.80;;;;;;5099438;28;19912;-79
2022/05/05 05:16:53;;;;;;;;;;;11.80;73.70;;;;;;5085380;28;19915;-79
2022/05/05 05:19:19;;;;;;;;;;;11.80;73.80;;;;;;5080656;28;20007;-77
2022/05/05 05:21:45;;;;;;;;;;;11.80;73.70;;;;;;5087310;28;19960;-78
2022/05/05 05:24:11;;;;;;;;;;;11.90;72.70;;;;;;5093667;28;19916;-83
2022/05/05 05:26:36;;;;;;;;;;;11.90;71.40;;;;;;5091613;28;19912;-79
2022/05/05 05:29:02;;;;;;;;;;;11.80;72.30;;;;;;5072136;28;20558;-80
2022/05/05 05:31:28;;;;;;;;;;;11.80;71.90;;;;;;5076980;28;20374;-79
2022/05/05 05:33:53;;;;;;;;;;;11.80;72.30;;;;;;5091805;28;19924;-78
2022/05/05 05:36:19;;;;;;;;;;;12.00;72.40;;;;;;5101582;28;19916;-80
2022/05/05 05:38:45;;;;;;;;;;;12.10;71.80;;;;;;5081957;28;19912;-79
2022/05/05 05:41:10;;;;;;;;;;;12.30;71.80;;;;;;5074906;28;19916;-79
2022/05/05 05:43:36;;;;;;;;;;;12.30;72.20;;;;;;5110731;28;19920;-79
2022/05/05 05:46:01;;;;;;;;;;;12.50;72.30;;;;;;5097200;28;19947;-80
2022/05/05 05:48:27;;;;;;;;;;;12.60;72.50;;;;;;5080384;28;19927;-80
2022/05/05 05:50:52;;;;;;;;;;;12.70;72.40;;;;;;5072753;28;19912;-79
2022/05/05 05:53:18;;;;;;;;;;;12.80;72.20;;;;;;5084941;28;19923;-79
2022/05/05 05:55:43;;;;;;;;;;;12.80;72.70;;;;;;5067224;28;19916;-80
2022/05/05 05:58:09;;;;;;;;;;;12.70;73.40;;;;;;5076318;28;19923;-81
2022/05/05 06:00:34;;;;;;;;;;;12.80;72.60;;;;;;5075757;28;19931;-80
2022/05/05 06:05:45;;;;;;;;;;;12.90;71.80;;;;;;5088642;28;20120;-82
2022/05/05 06:08:10;;;;;;;;;;;13.00;71.30;;;;;;5068469;28;19908;-81
2022/05/05 06:10:36;;;;;;;;;;;13.00;70.70;;;;;;5087536;28;19970;-81
2022/05/05 06:13:02;;;;;;;;;;;13.10;70.90;;;;;;5099994;28;20488;-79
2022/05/05 06:15:28;;;;;;;;;;;13.00;70.70;;;;;;5108917;28;19912;-80
2022/05/05 06:17:53;;;;;;;;;;;13.10;70.60;;;;;;5097255;28;20367;-81
2022/05/05 06:20:19;;;;;;;;;;;13.00;70.60;;;;;;5094040;28;19916;-82
2022/05/05 06:22:45;;;;;;;;;;;13.10;71.00;;;;;;5082466;28;20431;-81
2022/05/05 06:25:13;;;;;;;;;;;13.10;71.20;;;;;;5083587;28;20242;-81
2022/05/05 06:27:39;;;;;;;;;;;13.10;71.20;;;;;;5097172;28;19919;-78
2022/05/05 06:30:06;;;;;;;;;;;13.00;71.30;;;;;;5090787;28;19913;-80
2022/05/05 06:32:31;;;;;;;;;;;13.10;71.50;;;;;;5114545;27;19916;-80
2022/05/05 06:34:57;;;;;;;;;;;13.10;70.80;;;;;;5090714;28;19951;-82
2022/05/05 06:37:25;;;;;;;;;;;13.10;70.60;;;;;;5091098;28;19916;-80
2022/05/05 06:39:51;;;;;;;;;;;13.20;70.00;;;;;;5070180;28;19947;-80
2022/05/05 06:42:17;;;;;;;;;;;13.40;70.10;;;;;;5064572;28;19981;-79
2022/05/05 06:44:42;;;;;;;;;;;13.30;70.80;;;;;;5093085;28;19947;-80
2022/05/05 06:47:08;;;;;;;;;;;13.40;71.00;;;;;;5086210;28;20015;-79
2022/05/05 06:49:34;;;;;;;;;;;13.40;71.20;;;;;;5088488;28;20031;-79
2022/05/05 06:51:59;;;;;;;;;;;13.50;70.90;;;;;;5072395;28;19916;-80
2022/05/05 06:54:25;;;;;;;;;;;13.50;70.20;;;;;;5090603;28;20289;-80
2022/05/05 06:56:51;;;;;;;;;;;13.60;71.40;;;;;;5072653;28;19963;-80
2022/05/05 06:59:16;;;;;;;;;;;13.60;71.20;;;;;;5080960;28;19916;-77
2022/05/05 07:02:01;;;;;;;;;;;13.70;69.90;;;;;;5085499;28;19920;-77
2022/05/05 07:07:14;;;;;;;;;;;14.00;69.10;;;;;;5087324;28;19919;-79
2022/05/05 07:12:24;;;;;;;;;;;14.50;67.90;;;;;;5084705;28;19935;-80
2022/05/05 07:14:49;;;;;;;;;;;14.50;66.90;;;;;;5077034;28;19912;-79
2022/05/05 07:17:15;;;;;;;;;;;14.60;66.70;;;;;;5079589;28;19998;-80
2022/05/05 07:19:40;;;;;;;;;;;14.70;66.80;;;;;;5067895;28;19912;-79
2022/05/05 07:22:06;;;;;;;;;;;14.80;67.00;;;;;;5073181;28;19920;-79
2022/05/05 07:24:32;;;;;;;;;;;15.00;65.70;;;;;;5088257;28;19916;-79
2022/05/05 07:27:01;;;;;;;;;;;15.10;65.60;;;;;;5066143;28;20381;-79
2022/05/05 07:29:27;;;;;;;;;;;15.20;63.40;;;;;;5092293;28;19961;-80
2022/05/05 07:31:52;;;;;;;;;;;15.40;63.10;;;;;;5096907;28;19916;-80
2022/05/05 07:34:21;;;;;;;;;;;15.60;62.30;;;;;;5073977;28;19916;-80
2022/05/05 07:36:46;;;;;;;;;;;15.90;61.60;;;;;;5091259;28;19951;-79
2022/05/05 07:39:12;;;;;;;;;;;16.00;59.90;;;;;;5086268;28;20022;-79
2022/05/05 07:41:37;;;;;;;;;;;16.00;58.90;;;;;;5069687;28;19918;-80
2022/05/05 07:44:05;;;;;;;;;;;16.00;58.60;;;;;;5091395;28;19919;-81
2022/05/05 07:46:32;;;;;;;;;;;16.10;59.00;;;;;;5078372;28;19928;-81
2022/05/05 07:48:57;;;;;;;;;;;16.10;59.50;;;;;;5069155;28;19920;-77
2022/05/05 07:51:23;;;;;;;;;;;16.10;60.30;;;;;;5083337;28;20299;-78
2022/05/05 07:56:33;;;;;;;;;;;16.40;58.40;;;;;;5093030;28;19981;-81
2022/05/05 07:58:58;;;;;;;;;;;16.50;57.70;;;;;;5092621;28;19912;-82
2022/05/05 08:01:24;;;;;;;;;;;16.40;57.70;;;;;;5074718;28;19971;-82
2022/05/05 08:03:49;;;;;;;;;;;16.50;56.60;;;;;;5090532;28;20033;-81
2022/05/05 08:06:15;;;;;;;;;;;16.60;56.80;;;;;;5072776;28;20336;-81
2022/05/05 08:08:40;;;;;;;;;;;16.70;56.10;;;;;;5086029;28;19948;-81
2022/05/05 08:11:09;;;;;;;;;;;16.80;55.70;;;;;;5088514;28;19912;-82
2022/05/05 08:13:35;;;;;;;;;;;16.70;54.00;;;;;;5074327;28;20008;-82
2022/05/05 08:16:00;;;;;;;;;;;16.70;52.90;;;;;;5092601;28;19988;-81
2022/05/05 08:18:25;;;;;;;;;;;16.90;54.60;;;;;;5099715;28;19927;-81
2022/05/05 08:20:51;;;;;;;;;;;16.90;54.20;;;;;;5090073;28;19937;-81
2022/05/05 08:23:17;;;;;;;;;;;16.80;53.10;;;;;;5108792;28;19912;-82
2022/05/05 08:28:30;;;;;;;;;;;16.70;52.80;;;;;;5101376;28;19926;-79
2022/05/05 08:30:56;;;;;;;;;;;16.60;52.20;;;;;;5096534;28;20528;-83
2022/05/05 08:33:23;;;;;;;;;;;16.50;52.20;;;;;;5095485;28;19938;-80
2022/05/05 08:35:49;;;;;;;;;;;16.50;51.70;;;;;;5098062;28;19917;-81
2022/05/05 08:38:17;;;;;;;;;;;16.60;53.10;;;;;;5097772;28;19984;-80
2022/05/05 08:40:42;;;;;;;;;;;16.60;52.70;;;;;;5088204;28;19992;-81
2022/05/05 08:43:08;;;;;;;;;;;16.50;54.10;;;;;;5104859;28;19912;-80
2022/05/05 08:45:34;;;;;;;;;;;16.30;54.00;;;;;;5097424;28;19928;-81
2022/05/05 08:47:59;;;;;;;;;;;16.40;52.40;;;;;;5081299;28;19948;-83
2022/05/05 08:50:25;;;;;;;;;;;16.30;52.40;;;;;;5093198;28;19919;-80
2022/05/05 08:52:51;;;;;;;;;;;16.30;53.20;;;;;;5106643;28;19923;-81
2022/05/05 08:55:20;;;;;;;;;;;16.20;52.40;;;;;;5109237;28;19947;-81
2022/05/05 08:57:46;;;;;;;;;;;16.10;53.70;;;;;;5103247;28;19987;-84
2022/05/05 09:00:13;;;;;;;;;;;16.20;53.00;;;;;;5087574;28;19916;-83
2022/05/05 09:02:39;;;;;;;;;;;16.20;52.80;;;;;;5078723;28;19920;-82
2022/05/05 09:05:09;;;;;;;;;;;16.10;53.00;;;;;;5075292;28;19920;-86
2022/05/05 09:10:51;;;;;;;;;;;16.10;53.10;;;;;;5081462;28;19919;-83
2022/05/05 09:14:26;;;;;;;;;;;;;;;;;;;;;
2022/05/05 09:16:51;;;;;;;;;;;16.00;55.20;;;;;;5043026;28;19928;-82
2022/05/05 09:22:27;;;;;;;;;;;16.10;54.10;;;;;;5108328;28;19955;-83
2022/05/05 09:24:56;;;;;;;;;;;16.10;53.70;;;;;;5114027;28;19939;-83
2022/05/05 09:27:24;;;;;;;;;;;16.20;52.50;;;;;;5102563;28;19927;-82
2022/05/05 09:30:08;;;;;;;;;;;16.30;52.50;;;;;;5087432;28;19908;-82
2022/05/05 09:32:37;;;;;;;;;;;16.30;54.10;;;;;;5093237;28;19900;-83
2022/05/05 09:35:13;;;;;;;;;;;16.30;53.40;;;;;;5120029;28;19921;-82
2022/05/05 09:37:45;;;;;;;;;;;16.30;52.60;;;;;;5062049;22;20040;-84
2022/05/05 09:40:12;;;;;;;;;;;16.20;53.30;;;;;;5034616;28;20258;-84
2022/05/05 09:42:39;;;;;;;;;;;16.10;53.40;;;;;;5034346;28;20384;-83
2022/05/05 09:45:18;;;;;;;;;;;16.00;53.20;;;;;;5033660;28;19919;-81
2022/05/05 09:47:45;;;;;;;;;;;16.00;54.00;;;;;;5028558;28;20360;-80
2022/05/05 09:50:12;;;;;;;;;;;16.10;53.60;;;;;;5030933;28;20369;-84
2022/05/05 09:58:08;;;;;;;;;;;16.60;52.70;;;;;;5030617;28;20048;-84
2022/05/05 10:00:44;;;;;;;;;;;16.50;52.50;;;;;;5046549;28;20023;-84
2022/05/05 10:05:56;;;;;;;;;;;16.60;52.20;;;;;;5025411;28;19940;-86
2022/05/05 10:08:30;;;;;;;;;;;16.60;53.20;;;;;;5027274;28;19974;-85
2022/05/05 10:10:56;;;;;;;;;;;16.70;52.40;;;;;;5026184;28;19995;-85
2022/05/05 10:13:23;;;;;;;;;;;16.80;53.30;;;;;;5033603;28;19956;-84
2022/05/05 10:15:49;;;;;;;;;;;17.10;53.40;;;;;;5028705;28;20350;-83
2022/05/05 10:18:16;;;;;;;;;;;17.20;50.70;;;;;;5030262;28;19950;-82
2022/05/05 10:20:42;;;;;;;;;;;17.20;51.30;;;;;;5032952;28;19921;-82
2022/05/05 10:23:11;;;;;;;;;;;17.30;52.00;;;;;;5045759;28;19925;-81
2022/05/05 10:25:37;;;;;;;;;;;17.30;51.00;;;;;;5039350;28;19981;-83
2022/05/05 10:28:03;;;;;;;;;;;17.10;51.50;;;;;;5035348;28;19991;-82
2022/05/05 10:30:35;;;;;;;;;;;17.00;51.10;;;;;;5041352;28;19963;-84
2022/05/05 10:33:01;;;;;;;;;;;17.10;51.80;;;;;;5033416;28;19917;-83
2022/05/05 10:35:36;;;;;;;;;;;17.10;51.50;;;;;;5027061;28;19945;-83
2022/05/05 10:38:02;;;;;;;;;;;17.00;50.80;;;;;;5029619;28;20043;-83
2022/05/05 10:40:41;;;;;;;;;;;17.00;51.10;;;;;;5029320;28;19968;-85
2022/05/05 10:43:09;;;;;;;;;;;16.90;50.70;;;;;;5037892;28;19988;-86
2022/05/05 10:45:34;;;;;;;;;;;16.80;51.80;;;;;;5023205;28;19921;-84
2022/05/05 10:48:04;;;;;;;;;;;17.00;51.40;;;;;;5024046;28;19919;-84
2022/05/05 10:50:31;;;;;;;;;;;16.90;53.00;;;;;;5025512;28;20049;-83
2022/05/05 10:52:56;;;;;;;;;;;17.00;52.40;;;;;;5021165;28;19913;-83
2022/05/05 10:55:24;;;;;;;;;;;17.20;51.70;;;;;;5019193;28;20110;-82
2022/05/05 10:57:49;;;;;;;;;;;17.30;51.00;;;;;;5022559;28;19921;-84
2022/05/05 11:00:19;;;;;;;;;;;17.30;51.00;;;;;;5026487;28;19936;-83
2022/05/05 11:03:03;;;;;;;;;;;17.20;51.30;;;;;;5029445;28;20300;-81
2022/05/05 11:05:30;;;;;;;;;;;17.20;52.20;;;;;;5029331;28;20015;-84
2022/05/05 11:07:56;;;;;;;;;;;17.30;51.60;;;;;;5026812;28;19940;-82
2022/05/05 11:10:42;;;;;;;;;;;17.60;52.40;;;;;;5038584;28;19928;-82
2022/05/05 11:13:08;;;;;;;;;;;17.80;50.30;;;;;;5031779;28;19914;-83
2022/05/05 11:21:33;;;;;;;;;;;18.00;47.50;;;;;;5035566;28;19927;-81
2022/05/05 11:24:00;;;;;;;;;;;18.00;48.10;;;;;;5027969;28;19913;-83
2022/05/05 11:26:26;;;;;;;;;;;18.00;48.80;;;;;;5033395;28;19939;-83
2022/05/05 11:28:52;;;;;;;;;;;18.30;47.70;;;;;;5025051;28;20016;-82
2022/05/05 11:31:19;;;;;;;;;;;18.40;48.60;;;;;;5031272;28;19941;-83
2022/05/05 11:33:52;;;;;;;;;;;18.60;49.20;;;;;;5020542;28;20175;-85
2022/05/05 11:36:18;;;;;;;;;;;18.80;48.10;;;;;;5039429;28;19978;-85
2022/05/05 11:38:43;;;;;;;;;;;18.60;47.20;;;;;;5028653;28;19967;-87
2022/05/05 11:41:09;;;;;;;;;;;18.50;47.10;;;;;;5046586;28;20105;-83
2022/05/05 11:46:19;;;;;;;;;;;18.30;50.00;;;;;;5037549;28;19967;-82
2022/05/05 11:48:55;;;;;;;;;;;18.20;51.40;;;;;;5036502;28;19921;-82
2022/05/05 11:51:21;;;;;;;;;;;18.30;48.40;;;;;;5053430;28;19917;-81
2022/05/05 11:53:47;;;;;;;;;;;18.50;51.40;;;;;;5036199;28;19974;-81
2022/05/05 11:56:13;;;;;;;;;;;18.50;48.40;;;;;;5033233;28;20278;-81
2022/05/05 12:01:42;;;;;;;;;;;18.70;48.20;;;;;;5010903;28;19990;-81
2022/05/05 12:04:12;;;;;;;;;;;18.90;48.90;;;;;;5024981;28;19913;-82
2022/05/05 12:06:39;;;;;;;;;;;19.10;47.90;;;;;;5023040;28;19960;-82
2022/05/05 12:09:06;;;;;;;;;;;19.10;47.70;;;;;;5026272;28;20277;-80
2022/05/05 12:11:32;;;;;;;;;;;19.20;48.20;;;;;;5042645;28;20392;-81
2022/05/05 12:14:03;;;;;;;;;;;19.40;48.40;;;;;;5026435;28;19913;-80
2022/05/05 12:18:54;;;;;;;;;;;19.50;45.40;;;;;;5090964;22;20382;-80
2022/05/05 12:21:24;;;;;;;;;;;19.70;45.30;;;;;;5059437;28;19924;-83
2022/05/05 12:23:59;;;;;;;;;;;19.90;45.80;;;;;;5056075;28;19951;-84
2022/05/05 12:26:43;;;;;;;;;;;19.90;45.20;;;;;;5061626;28;19928;-82
2022/05/05 12:29:15;;;;;;;;;;;19.80;44.20;;;;;;5076047;28;19905;-84
2022/05/05 12:31:56;;;;;;;;;;;19.70;45.30;;;;;;5068675;28;19948;-83
2022/05/05 12:34:27;;;;;;;;;;;19.70;44.10;;;;;;5070888;28;19900;-87
2022/05/05 12:37:19;;;;;;;;;;;19.80;45.40;;;;;;5038079;28;19913;-86
2022/05/05 12:39:48;;;;;;;;;;;19.70;44.60;;;;;;5032634;28;19912;-84
2022/05/05 12:42:21;;;;;;;;;;;19.70;44.90;;;;;;5044612;28;19973;-88
2022/05/05 12:44:49;;;;;;;;;;;19.80;45.50;;;;;;5037011;28;20434;-85
2022/05/05 12:47:21;;;;;;;;;;;19.60;46.20;;;;;;5038473;28;19971;-85
2022/05/05 12:49:46;;;;;;;;;;;19.50;43.60;;;;;;5042159;28;19956;-82
2022/05/05 13:00:24;;;;;;;;;;;19.20;44.00;;;;;;5048608;28;19943;-84
2022/05/05 13:02:50;;;;;;;;;;;19.20;45.00;;;;;;5044410;28;20521;-84
2022/05/05 13:05:19;;;;;;;;;;;19.30;44.80;;;;;;5052878;28;20407;-85
2022/05/05 13:07:45;;;;;;;;;;;19.40;45.00;;;;;;5034825;28;20368;-81
2022/05/05 13:10:10;;;;;;;;;;;19.50;45.70;;;;;;5041090;28;19956;-80
2022/05/05 13:12:36;;;;;;;;;;;19.60;46.20;;;;;;5051619;28;19944;-80
2022/05/05 13:15:01;;;;;;;;;;;19.80;45.50;;;;;;5062976;28;19948;-80
2022/05/05 13:17:27;;;;;;;;;;;19.90;45.10;;;;;;5032999;28;19939;-81
2022/05/05 13:19:52;;;;;;;;;;;19.80;46.30;;;;;;5036551;28;20648;-81
2022/05/05 13:22:18;;;;;;;;;;;19.80;47.40;;;;;;5036823;28;19943;-81
2022/05/05 13:24:43;;;;;;;;;;;19.70;44.70;;;;;;5037111;28;19921;-82
2022/05/05 13:27:08;;;;;;;;;;;19.50;45.70;;;;;;5042912;28;19942;-81
2022/05/05 13:29:34;;;;;;;;;;;19.50;45.90;;;;;;5048795;28;19913;-81
2022/05/05 13:31:59;;;;;;;;;;;19.50;45.80;;;;;;5031943;28;19952;-80
2022/05/05 13:34:25;;;;;;;;;;;19.40;46.30;;;;;;5051601;28;20292;-81
2022/05/05 13:36:51;;;;;;;;;;;19.50;46.90;;;;;;5039062;28;19929;-81
2022/05/05 13:39:17;;;;;;;;;;;19.70;46.10;;;;;;5046190;28;20291;-80
2022/05/05 13:41:42;;;;;;;;;;;19.60;44.70;;;;;;5047524;28;19925;-81
2022/05/05 13:44:10;;;;;;;;;;;19.70;43.90;;;;;;5041318;28;19924;-81
2022/05/05 13:46:36;;;;;;;;;;;19.70;44.30;;;;;;5030226;28;19916;-80
2022/05/05 13:49:04;;;;;;;;;;;19.60;43.60;;;;;;5040081;28;20514;-79
2022/05/05 13:51:29;;;;;;;;;;;19.40;45.40;;;;;;5030522;28;19909;-81
2022/05/05 13:53:55;;;;;;;;;;;19.20;44.10;;;;;;5040551;28;19968;-81
2022/05/05 13:56:20;;;;;;;;;;;19.40;44.20;;;;;;5051925;28;19912;-81
2022/05/05 13:58:46;;;;;;;;;;;19.40;43.90;;;;;;5054614;28;20362;-81
2022/05/05 14:01:11;;;;;;;;;;;19.30;44.90;;;;;;5039765;28;19922;-81
2022/05/05 14:03:37;;;;;;;;;;;19.30;45.10;;;;;;5040064;28;19935;-81
2022/05/05 14:06:02;;;;;;;;;;;19.40;44.70;;;;;;5038958;28;19913;-82
2022/05/05 14:13:58;;;;;;;;;;;19.80;43.20;;;;;;4980583;28;19971;-79
2022/05/05 14:16:31;;;;;;;;;;;19.90;43.00;;;;;;5015871;28;20195;-82
2022/05/05 14:18:59;;;;;;;;;;;20.00;43.30;;;;;;5010831;28;19924;-84
2022/05/05 14:21:28;;;;;;;;;;;20.10;44.10;;;;;;4984236;28;20455;-83
2022/05/05 14:24:02;;;;;;;;;;;20.20;42.40;;;;;;4959804;28;19916;-82
2022/05/05 14:26:29;;;;;;;;;;;20.20;42.80;;;;;;4975573;28;20694;-80
2022/05/05 14:29:01;;;;;;;;;;;20.30;43.10;;;;;;4962666;28;20184;-80
2022/05/05 14:31:27;;;;;;;;;;;20.10;42.70;;;;;;4972911;28;19979;-82
2022/05/05 14:33:56;;;;;;;;;;;20.20;42.80;;;;;;5013889;28;20739;-82
2022/05/05 14:36:27;;;;;;;;;;;20.20;43.50;;;;;;5019283;28;19944;-82
2022/05/05 14:38:57;;;;;;;;;;;20.50;42.30;;;;;;5015616;28;19913;-80
2022/05/05 14:41:22;;;;;;;;;;;20.50;42.10;;;;;;5035305;28;20079;-83
2022/05/05 14:44:13;;;;;;;;;;;;;;;;;;;;;
2022/05/05 14:49:48;;;;;;;;;;;20.20;42.50;;;;;;5011337;28;19991;-83
2022/05/05 14:52:53;;;;;;;;;;;20.20;43.00;;;;;;5003113;28;19924;-83
2022/05/05 14:55:20;;;;;;;;;;;20.10;43.20;;;;;;4953952;28;20304;-81
2022/05/05 14:57:46;;;;;;;;;;;19.80;43.10;;;;;;5005853;28;19909;-84
2022/05/05 15:00:12;;;;;;;;;;;19.80;43.60;;;;;;4991502;28;20254;-82
2022/05/05 15:02:37;;;;;;;;;;;19.80;45.20;;;;;;5034236;28;19917;-84
2022/05/05 15:05:10;;;;;;;;;;;19.90;44.00;;;;;;4974832;28;19913;-82
2022/05/05 15:07:40;;;;;;;;;;;20.00;44.40;;;;;;4973020;28;19970;-82
2022/05/05 15:10:09;;;;;;;;;;;20.10;43.80;;;;;;5012095;28;20175;-80
2022/05/05 15:12:35;;;;;;;;;;;20.10;44.10;;;;;;5022512;28;19913;-82
2022/05/05 15:15:01;;;;;;;;;;;20.10;42.50;;;;;;5019677;28;19956;-81
2022/05/05 15:17:27;;;;;;;;;;;20.00;42.50;;;;;;4999365;28;19964;-81
2022/05/05 15:19:52;;;;;;;;;;;20.00;42.70;;;;;;5032072;28;19938;-82
2022/05/05 15:22:18;;;;;;;;;;;20.00;43.10;;;;;;5006270;28;19916;-84
2022/05/05 15:25:02;;;;;;;;;;;20.10;43.10;;;;;;5030607;28;20313;-81
2022/05/05 15:27:28;;;;;;;;;;;20.30;44.20;;;;;;4991696;28;19924;-77
2022/05/05 15:30:00;;;;;;;;;;;20.40;45.60;;;;;;4953081;28;20091;-78
2022/05/05 15:32:29;;;;;;;;;;;20.40;44.60;;;;;;4971872;28;20236;-79